Time;durP1;ratioP1;P1;durP2;ratioP2;P2;SDS_P1;SDS_P2;PMS_P1;PMS_P2;Temp;Humidity;BMP_temperature;BMP_pressure;BME280_temperature;BME280_humidity;BME280_pressure;Samples;Min_cycle;Max_cycle;Signal;HPM_P1;HPM_P2
2022/06/15 00:02:07;;;;;;;4.28;3.88;;;;;;;;;;5094660;28;20040;-71
2022/06/15 00:04:34;;;;;;;4.05;3.40;;;;;;;;;;5094482;28;20043;-71
2022/06/15 00:07:00;;;;;;;6.97;3.87;;;;;;;;;;5094463;28;20082;-71
2022/06/15 00:09:27;;;;;;;4.03;3.65;;;;;;;;;;5092411;28;20414;-71
2022/06/15 00:11:54;;;;;;;4.67;3.80;;;;;;;;;;5094293;28;20415;-71
2022/06/15 00:14:25;;;;;;;7.30;4.18;;;;;;;;;;5094013;28;20147;-72
2022/06/15 00:16:52;;;;;;;5.38;4.22;;;;;;;;;;5094170;28;20086;-71
2022/06/15 00:19:19;;;;;;;3.95;3.65;;;;;;;;;;5093989;28;20076;-72
2022/06/15 00:21:45;;;;;;;4.05;3.60;;;;;;;;;;5094257;28;20083;-71
2022/06/15 00:24:12;;;;;;;3.92;3.30;;;;;;;;;;5094147;28;20097;-71
2022/06/15 00:26:39;;;;;;;4.57;3.97;;;;;;;;;;5093800;28;20083;-71
2022/06/15 00:29:05;;;;;;;4.03;3.27;;;;;;;;;;5094127;28;20044;-71
2022/06/15 00:31:32;;;;;;;3.40;3.10;;;;;;;;;;5094085;28;20419;-71
2022/06/15 00:33:58;;;;;;;5.20;3.10;;;;;;;;;;5093482;28;20044;-71
2022/06/15 00:36:25;;;;;;;3.72;2.97;;;;;;;;;;5093638;28;20083;-71
2022/06/15 00:38:55;;;;;;;3.03;2.70;;;;;;;;;;5093811;28;20076;-71
2022/06/15 00:41:24;;;;;;;4.30;3.58;;;;;;;;;;5093825;28;20047;-71
2022/06/15 00:43:52;;;;;;;4.20;3.70;;;;;;;;;;5093446;28;20051;-71
2022/06/15 00:46:41;;;;;;;3.65;3.35;;;;;;;;;;5093435;28;20078;-71
2022/06/15 00:49:16;;;;;;;3.35;2.80;;;;;;;;;;5093459;28;20135;-71
2022/06/15 00:51:43;;;;;;;3.58;3.28;;;;;;;;;;5093293;28;20515;-71
2022/06/15 00:54:09;;;;;;;3.83;3.53;;;;;;;;;;5093364;28;20075;-71
2022/06/15 00:56:37;;;;;;;4.88;3.50;;;;;;;;;;5093361;28;20079;-71
2022/06/15 00:59:07;;;;;;;3.85;3.17;;;;;;;;;;5093508;28;20079;-71
2022/06/15 01:01:33;;;;;;;5.25;3.90;;;;;;;;;;5093487;28;20040;-71
2022/06/15 01:04:01;;;;;;;4.47;3.88;;;;;;;;;;5093152;28;20467;-71
2022/06/15 01:06:35;;;;;;;4.30;3.55;;;;;;;;;;5093180;28;20044;-71
2022/06/15 01:09:07;;;;;;;3.88;3.38;;;;;;;;;;5093689;28;20086;-71
2022/06/15 01:11:52;;;;;;;3.67;3.33;;;;;;;;;;5092915;28;20079;-71
2022/06/15 01:14:29;;;;;;;3.92;3.20;;;;;;;;;;5093255;28;20457;-71
2022/06/15 01:17:04;;;;;;;4.55;3.60;;;;;;;;;;5092900;28;20105;-71
2022/06/15 01:19:51;;;;;;;3.92;3.50;;;;;;;;;;5093065;28;20051;-72
2022/06/15 01:22:30;;;;;;;3.90;3.60;;;;;;;;;;5093131;28;20075;-71
2022/06/15 01:25:07;;;;;;;4.15;3.13;;;;;;;;;;5092980;28;20446;-71
2022/06/15 01:27:52;;;;;;;4.43;3.22;;;;;;;;;;5092687;28;20512;-71
2022/06/15 01:30:20;;;;;;;3.55;3.25;;;;;;;;;;5092546;28;20485;-71
2022/06/15 01:33:08;;;;;;;5.82;3.50;;;;;;;;;;5092892;28;20083;-71
2022/06/15 01:35:34;;;;;;;4.53;3.40;;;;;;;;;;5092363;28;20087;-71
2022/06/15 01:38:19;;;;;;;5.45;3.38;;;;;;;;;;5092313;28;20594;-71
2022/06/15 01:40:47;;;;;;;4.53;3.08;;;;;;;;;;5092219;28;20050;-71
2022/06/15 01:43:17;;;;;;;4.38;3.58;;;;;;;;;;5091524;28;20070;-71
2022/06/15 01:45:44;;;;;;;3.60;3.13;;;;;;;;;;5091734;28;20052;-71
2022/06/15 01:48:11;;;;;;;5.38;3.22;;;;;;;;;;5092601;28;20488;-71
2022/06/15 01:50:40;;;;;;;3.80;3.25;;;;;;;;;;5092470;28;20044;-72
2022/06/15 01:53:19;;;;;;;3.25;2.95;;;;;;;;;;5092167;28;20098;-71
2022/06/15 01:55:48;;;;;;;3.58;3.28;;;;;;;;;;5091996;28;20080;-71
2022/06/15 01:58:16;;;;;;;4.05;3.70;;;;;;;;;;5092364;28;20040;-71
2022/06/15 02:00:46;;;;;;;4.93;3.47;;;;;;;;;;5092129;28;20039;-71
2022/06/15 02:03:18;;;;;;;4.05;3.70;;;;;;;;;;5092139;28;20078;-72
2022/06/15 02:05:52;;;;;;;4.25;3.17;;;;;;;;;;5092308;28;20040;-72
2022/06/15 02:08:37;;;;;;;3.13;2.92;;;;;;;;;;5092309;28;20098;-71
2022/06/15 02:11:05;;;;;;;3.35;3.03;;;;;;;;;;5092252;28;20074;-71
2022/06/15 02:13:37;;;;;;;5.68;3.92;;;;;;;;;;5092227;28;20244;-71
2022/06/15 02:16:05;;;;;;;3.65;3.35;;;;;;;;;;5091933;28;20078;-71
2022/06/15 02:18:32;;;;;;;3.80;3.50;;;;;;;;;;5091874;28;20055;-71
2022/06/15 02:21:08;;;;;;;3.80;3.50;;;;;;;;;;5091853;28;20044;-71
2022/06/15 02:23:35;;;;;;;4.93;3.70;;;;;;;;;;5091765;28;20491;-71
2022/06/15 02:26:02;;;;;;;4.85;3.35;;;;;;;;;;5092043;28;20146;-71
2022/06/15 02:28:31;;;;;;;5.53;3.77;;;;;;;;;;5091686;28;20496;-71
2022/06/15 02:30:57;;;;;;;3.75;3.40;;;;;;;;;;5090611;28;20093;-72
2022/06/15 02:33:24;;;;;;;3.13;2.90;;;;;;;;;;5091918;28;20158;-72
2022/06/15 02:35:51;;;;;;;4.43;3.30;;;;;;;;;;5091483;28;20144;-71
2022/06/15 02:38:17;;;;;;;4.35;3.67;;;;;;;;;;5091789;28;20095;-71
2022/06/15 02:40:44;;;;;;;4.50;3.63;;;;;;;;;;5091847;28;20468;-71
2022/06/15 02:43:10;;;;;;;3.67;3.38;;;;;;;;;;5091503;28;20079;-71
2022/06/15 02:45:39;;;;;;;5.15;3.72;;;;;;;;;;5091629;28;20095;-71
2022/06/15 02:48:06;;;;;;;4.55;3.05;;;;;;;;;;5091688;28;20052;-71
2022/06/15 02:50:37;;;;;;;3.25;2.95;;;;;;;;;;5091417;28;20492;-71
2022/06/15 02:53:08;;;;;;;3.85;3.47;;;;;;;;;;5091496;28;20480;-71
2022/06/15 02:55:35;;;;;;;4.72;4.10;;;;;;;;;;5091603;28;20110;-71
2022/06/15 02:58:04;;;;;;;3.70;3.40;;;;;;;;;;5095017;28;20105;-71
2022/06/15 03:00:31;;;;;;;5.35;4.03;;;;;;;;;;5095449;28;20090;-72
2022/06/15 03:02:57;;;;;;;3.90;3.60;;;;;;;;;;5095660;28;20056;-72
2022/06/15 03:05:24;;;;;;;3.97;3.65;;;;;;;;;;5095644;28;20095;-71
2022/06/15 03:07:51;;;;;;;5.15;3.85;;;;;;;;;;5095690;28;20504;-72
2022/06/15 03:10:17;;;;;;;4.13;3.28;;;;;;;;;;5095282;28;20090;-72
2022/06/15 03:12:44;;;;;;;4.40;4.00;;;;;;;;;;5095624;28;20104;-72
2022/06/15 03:15:11;;;;;;;4.18;3.70;;;;;;;;;;5095453;28;20047;-72
2022/06/15 03:17:37;;;;;;;4.80;4.33;;;;;;;;;;5095042;28;20075;-71
2022/06/15 03:20:04;;;;;;;5.35;4.15;;;;;;;;;;5095247;28;20113;-71
2022/06/15 03:22:35;;;;;;;5.00;3.88;;;;;;;;;;5095118;28;20052;-71
2022/06/15 03:25:02;;;;;;;5.40;4.00;;;;;;;;;;5095028;28;20083;-71
2022/06/15 03:27:28;;;;;;;4.20;3.80;;;;;;;;;;5093965;28;20071;-71
2022/06/15 03:29:55;;;;;;;3.42;3.20;;;;;;;;;;5094960;28;20538;-71
2022/06/15 03:32:21;;;;;;;4.72;3.63;;;;;;;;;;5095145;28;20103;-71
2022/06/15 03:34:48;;;;;;;5.05;3.90;;;;;;;;;;5094740;28;20048;-71
2022/06/15 03:37:14;;;;;;;3.92;3.13;;;;;;;;;;5095083;28;20082;-71
2022/06/15 03:39:41;;;;;;;4.35;3.65;;;;;;;;;;5094920;28;20040;-71
2022/06/15 03:42:08;;;;;;;4.30;3.00;;;;;;;;;;5094767;28;20048;-71
2022/06/15 03:44:34;;;;;;;4.20;3.20;;;;;;;;;;5094682;28;20048;-71
2022/06/15 03:47:01;;;;;;;3.55;3.25;;;;;;;;;;5094965;28;20102;-71
2022/06/15 03:49:27;;;;;;;3.80;3.50;;;;;;;;;;5094522;28;20079;-71
2022/06/15 03:51:53;;;;;;;5.60;3.63;;;;;;;;;;5094779;28;20044;-71
2022/06/15 03:54:20;;;;;;;4.82;3.38;;;;;;;;;;5093298;28;20507;-71
2022/06/15 03:56:47;;;;;;;4.93;4.35;;;;;;;;;;5094401;28;20133;-71
2022/06/15 03:59:14;;;;;;;3.85;3.55;;;;;;;;;;5094508;28;20072;-71
2022/06/15 04:01:40;;;;;;;4.40;3.88;;;;;;;;;;5094580;28;20505;-71
2022/06/15 04:04:07;;;;;;;4.35;3.35;;;;;;;;;;5094570;28;20040;-71
2022/06/15 04:06:33;;;;;;;4.13;3.72;;;;;;;;;;5094276;28;20093;-71
2022/06/15 04:09:00;;;;;;;3.60;3.30;;;;;;;;;;5093734;28;20076;-71
2022/06/15 04:14:12;;;;;;;6.47;4.05;;;;;;;;;;5094399;28;20063;-71
2022/06/15 04:16:38;;;;;;;4.38;3.45;;;;;;;;;;5093996;28;20048;-71
2022/06/15 04:19:07;;;;;;;4.38;3.88;;;;;;;;;;5093927;28;20048;-71
2022/06/15 04:21:40;;;;;;;4.05;3.42;;;;;;;;;;5093083;28;20097;-71
2022/06/15 04:24:11;;;;;;;4.40;3.33;;;;;;;;;;5093881;28;20500;-71
2022/06/15 04:26:38;;;;;;;3.80;3.50;;;;;;;;;;5094093;28;20109;-71
2022/06/15 04:29:05;;;;;;;3.92;3.40;;;;;;;;;;5094072;28;20086;-71
2022/06/15 04:31:31;;;;;;;5.80;3.78;;;;;;;;;;5094046;28;20079;-71
2022/06/15 04:33:58;;;;;;;4.78;3.75;;;;;;;;;;5093989;28;20059;-71
2022/06/15 04:36:26;;;;;;;4.55;3.90;;;;;;;;;;5093595;28;20486;-71
2022/06/15 04:38:52;;;;;;;4.90;3.58;;;;;;;;;;5093859;28;20098;-71
2022/06/15 04:41:23;;;;;;;4.00;3.42;;;;;;;;;;5093529;28;20048;-72
2022/06/15 04:43:49;;;;;;;4.22;3.63;;;;;;;;;;5093582;28;20075;-72
2022/06/15 04:46:16;;;;;;;4.57;3.70;;;;;;;;;;5093778;28;20427;-71
2022/06/15 04:48:43;;;;;;;4.95;4.15;;;;;;;;;;5093440;28;20557;-71
2022/06/15 04:51:21;;;;;;;5.40;4.20;;;;;;;;;;5092400;28;20083;-71
2022/06/15 04:53:48;;;;;;;4.15;3.65;;;;;;;;;;5093349;28;20039;-71
2022/06/15 04:56:15;;;;;;;5.97;3.50;;;;;;;;;;5093583;28;20083;-71
2022/06/15 04:58:43;;;;;;;6.97;3.85;;;;;;;;;;5093426;28;20075;-71
2022/06/15 05:01:10;;;;;;;15.57;12.35;;;;;;;;;;5093553;28;20043;-71
2022/06/15 05:03:37;;;;;;;29.77;24.38;;;;;;;;;;5093052;28;20519;-71
2022/06/15 05:06:26;;;;;;;26.70;20.20;;;;;;;;;;5093282;28;20043;-71
2022/06/15 05:08:53;;;;;;;17.35;14.05;;;;;;;;;;5084936;28;20067;-71
2022/06/15 05:11:19;;;;;;;14.27;9.88;;;;;;;;;;5093331;28;20101;-71
2022/06/15 05:13:46;;;;;;;9.60;7.97;;;;;;;;;;5093124;28;20135;-71
2022/06/15 05:16:12;;;;;;;9.00;7.90;;;;;;;;;;5093205;28;20036;-71
2022/06/15 05:18:39;;;;;;;9.13;7.70;;;;;;;;;;5092344;28;20052;-71
2022/06/15 05:21:05;;;;;;;8.32;7.45;;;;;;;;;;5092573;28;20472;-71
2022/06/15 05:23:32;;;;;;;7.80;7.00;;;;;;;;;;5092711;28;20512;-72
2022/06/15 05:25:59;;;;;;;7.57;5.82;;;;;;;;;;5092919;28;20101;-72
2022/06/15 05:28:25;;;;;;;7.77;6.97;;;;;;;;;;5092654;28;20086;-71
2022/06/15 05:31:01;;;;;;;7.97;7.18;;;;;;;;;;5092583;28;20087;-71
2022/06/15 05:33:27;;;;;;;7.50;6.75;;;;;;;;;;5093009;28;20403;-69
2022/06/15 05:36:00;;;;;;;6.18;5.50;;;;;;;;;;5092535;28;20482;-74
2022/06/15 05:38:26;;;;;;;6.43;4.70;;;;;;;;;;5092503;28;20504;-74
2022/06/15 05:40:52;;;;;;;5.72;4.85;;;;;;;;;;5092583;28;20047;-72
2022/06/15 05:43:19;;;;;;;5.10;4.60;;;;;;;;;;5092595;28;20072;-74
2022/06/15 05:45:45;;;;;;;8.77;5.20;;;;;;;;;;5092687;28;20071;-72
2022/06/15 05:48:12;;;;;;;6.15;4.88;;;;;;;;;;5092404;28;20128;-72
2022/06/15 05:50:38;;;;;;;6.15;4.90;;;;;;;;;;5092196;28;20101;-71
2022/06/15 05:53:05;;;;;;;5.28;4.70;;;;;;;;;;5092511;28;20114;-70
2022/06/15 05:55:31;;;;;;;5.60;4.70;;;;;;;;;;5092223;28;20076;-70
2022/06/15 05:57:57;;;;;;;4.75;4.15;;;;;;;;;;5092158;28;20068;-69
2022/06/15 06:00:25;;;;;;;4.75;4.28;;;;;;;;;;5091720;28;20082;-72
2022/06/15 06:02:52;;;;;;;6.25;4.82;;;;;;;;;;5091988;28;20120;-69
2022/06/15 06:05:18;;;;;;;9.02;6.95;;;;;;;;;;5091519;28;20093;-68
2022/06/15 06:07:45;;;;;;;10.52;6.80;;;;;;;;;;5091276;28;20052;-69
2022/06/15 06:10:11;;;;;;;9.25;5.00;;;;;;;;;;5091611;28;20079;-69
2022/06/15 06:12:38;;;;;;;7.38;4.72;;;;;;;;;;5091956;28;20048;-70
2022/06/15 06:15:05;;;;;;;10.60;6.38;;;;;;;;;;5090868;28;20051;-69
2022/06/15 06:17:31;;;;;;;7.95;5.60;;;;;;;;;;5091770;28;20515;-70
2022/06/15 06:19:57;;;;;;;6.50;5.60;;;;;;;;;;5091748;28;20043;-70
2022/06/15 06:22:24;;;;;;;4.80;4.30;;;;;;;;;;5091856;28;20080;-69
2022/06/15 06:24:50;;;;;;;6.93;4.45;;;;;;;;;;5091567;28;20098;-70
2022/06/15 06:27:17;;;;;;;7.15;4.50;;;;;;;;;;5091732;28;20480;-69
2022/06/15 06:29:43;;;;;;;7.40;4.72;;;;;;;;;;5092001;28;20097;-69
2022/06/15 06:32:14;;;;;;;6.13;5.00;;;;;;;;;;5091253;28;20040;-69
2022/06/15 06:34:40;;;;;;;6.43;5.15;;;;;;;;;;5091502;28;20067;-70
2022/06/15 06:37:10;;;;;;;4.90;4.47;;;;;;;;;;5091483;28;20488;-70
2022/06/15 06:39:38;;;;;;;6.63;4.97;;;;;;;;;;5091639;28;20047;-69
2022/06/15 06:42:05;;;;;;;6.90;4.53;;;;;;;;;;5091956;28;20440;-72
2022/06/15 06:44:32;;;;;;;5.05;4.30;;;;;;;;;;5091640;28;20618;-70
2022/06/15 06:46:58;;;;;;;5.03;4.50;;;;;;;;;;5091363;28;20063;-72
2022/06/15 06:49:25;;;;;;;7.10;4.18;;;;;;;;;;5091684;28;20052;-71
2022/06/15 06:51:52;;;;;;;4.95;4.55;;;;;;;;;;5091389;28;20456;-71
2022/06/15 06:54:20;;;;;;;6.77;4.17;;;;;;;;;;5091476;28;20124;-71
2022/06/15 06:56:47;;;;;;;5.65;4.20;;;;;;;;;;5091471;28;20329;-72
2022/06/15 06:59:14;;;;;;;5.07;3.80;;;;;;;;;;5091532;28;20071;-72
2022/06/15 07:01:42;;;;;;;5.60;3.75;;;;;;;;;;5091491;28;20101;-72
2022/06/15 07:04:08;;;;;;;;;;;;;;;;;;5091921;28;20072;-72
2022/06/15 07:06:35;;;;;;;7.57;4.53;;;;;;;;;;5091343;28;20406;-72
2022/06/15 07:09:02;;;;;;;5.78;3.53;;;;;;;;;;5091223;28;20088;-72
2022/06/15 07:11:29;;;;;;;3.70;3.25;;;;;;;;;;5091424;28;20048;-72
2022/06/15 07:13:56;;;;;;;4.33;3.23;;;;;;;;;;5091306;28;20048;-72
2022/06/15 07:16:22;;;;;;;3.35;2.83;;;;;;;;;;5091554;28;20079;-71
2022/06/15 07:18:49;;;;;;;3.20;2.60;;;;;;;;;;5091404;28;20052;-72
2022/06/15 07:21:17;;;;;;;4.05;2.85;;;;;;;;;;5091461;28;20308;-72
2022/06/15 07:23:45;;;;;;;4.47;2.80;;;;;;;;;;5091285;28;20067;-72
2022/06/15 07:26:17;;;;;;;4.28;2.65;;;;;;;;;;5077101;28;20141;-72
2022/06/15 07:28:43;;;;;;;3.70;2.90;;;;;;;;;;5091100;28;20499;-72
2022/06/15 07:31:22;;;;;;;3.03;2.78;;;;;;;;;;5091397;28;20059;-72
2022/06/15 07:33:49;;;;;;;2.88;2.58;;;;;;;;;;5091435;28;20056;-72
2022/06/15 07:36:16;;;;;;;3.90;2.60;;;;;;;;;;5090873;28;20063;-72
2022/06/15 07:38:43;;;;;;;4.13;1.98;;;;;;;;;;5090983;28;20086;-72
2022/06/15 07:41:09;;;;;;;2.20;2.00;;;;;;;;;;5091017;28;20462;-72
2022/06/15 07:43:36;;;;;;;3.47;2.20;;;;;;;;;;5093686;28;20076;-72
2022/06/15 07:46:02;;;;;;;4.00;2.30;;;;;;;;;;5094643;28;20048;-72
2022/06/15 07:51:33;;;;;;;6.72;2.00;;;;;;;;;;5094603;28;20460;-72
2022/06/15 07:54:01;;;;;;;5.80;3.70;;;;;;;;;;5094962;28;20079;-72
2022/06/15 07:56:27;;;;;;;2.22;1.63;;;;;;;;;;5094624;28;20052;-72
2022/06/15 07:58:54;;;;;;;3.33;2.00;;;;;;;;;;5094382;28;20040;-72
2022/06/15 08:01:22;;;;;;;3.53;1.60;;;;;;;;;;5094769;28;20040;-72
2022/06/15 08:03:49;;;;;;;1.92;1.55;;;;;;;;;;5094377;28;20037;-72
2022/06/15 08:06:16;;;;;;;4.53;1.60;;;;;;;;;;5094250;28;20078;-72
2022/06/15 08:08:43;;;;;;;2.53;1.60;;;;;;;;;;5094397;28;20079;-71
2022/06/15 08:11:10;;;;;;;3.35;1.90;;;;;;;;;;5094570;28;20075;-71
2022/06/15 08:13:43;;;;;;;2.20;1.80;;;;;;;;;;5094271;28;20074;-71
2022/06/15 08:16:10;;;;;;;3.63;1.70;;;;;;;;;;5094180;28;20397;-71
2022/06/15 08:18:37;;;;;;;;;;;;;;;;;;5094747;28;20079;-71
2022/06/15 08:21:06;;;;;;;2.63;1.60;;;;;;;;;;5094154;28;20034;-71
2022/06/15 08:23:34;;;;;;;3.15;1.52;;;;;;;;;;5094287;28;20097;-72
2022/06/15 08:26:02;;;;;;;2.97;1.33;;;;;;;;;;5094231;28;20036;-72
2022/06/15 08:28:31;;;;;;;3.85;2.05;;;;;;;;;;5094002;28;20113;-72
2022/06/15 08:30:57;;;;;;;5.85;2.00;;;;;;;;;;5093818;28;20108;-72
2022/06/15 08:33:25;;;;;;;3.70;1.70;;;;;;;;;;5094105;28;20056;-72
2022/06/15 08:35:51;;;;;;;3.03;1.63;;;;;;;;;;5093647;28;20083;-71
2022/06/15 08:38:18;;;;;;;;;;;;;;;;;;5094390;28;20090;-71
2022/06/15 08:40:44;;;;;;;;;;;;;;;;;;5094364;28;19970;-72
2022/06/15 08:43:22;;;;;;;4.20;1.40;;;;;;;;;;5093612;28;20067;-72
2022/06/15 08:45:52;;;;;;;5.85;1.90;;;;;;;;;;5093584;28;20048;-71
2022/06/15 08:48:22;;;;;;;3.83;2.00;;;;;;;;;;5093498;28;20079;-72
2022/06/15 08:50:59;;;;;;;4.05;1.90;;;;;;;;;;5093325;28;20083;-71
2022/06/15 08:53:30;;;;;;;2.63;2.17;;;;;;;;;;5093395;28;20400;-71
2022/06/15 08:56:00;;;;;;;5.72;2.28;;;;;;;;;;5093591;28;20048;-71
2022/06/15 08:58:33;;;;;;;5.30;2.10;;;;;;;;;;5093411;28;20437;-71
2022/06/15 09:01:20;;;;;;;3.17;1.73;;;;;;;;;;5093606;28;20040;-72
2022/06/15 09:03:53;;;;;;;5.57;2.45;;;;;;;;;;5092995;28;20287;-72
2022/06/15 09:06:39;;;;;;;3.55;1.83;;;;;;;;;;5093219;28;20052;-72
2022/06/15 09:09:11;;;;;;;3.90;1.87;;;;;;;;;;5093050;28;20075;-72
2022/06/15 09:11:50;;;;;;;5.82;2.10;;;;;;;;;;5092108;28;20336;-72
2022/06/15 09:14:17;;;;;;;4.55;2.17;;;;;;;;;;5093264;28;20091;-72
2022/06/15 09:16:54;;;;;;;2.97;1.98;;;;;;;;;;5092977;28;20048;-72
2022/06/15 09:19:26;;;;;;;5.88;2.00;;;;;;;;;;5093065;28;20075;-72
2022/06/15 09:22:04;;;;;;;3.25;1.98;;;;;;;;;;5093205;28;20653;-72
2022/06/15 09:24:34;;;;;;;4.00;2.60;;;;;;;;;;5093177;28;20046;-72
2022/06/15 09:27:02;;;;;;;3.40;1.63;;;;;;;;;;5092878;28;20471;-72
2022/06/15 09:29:31;;;;;;;4.07;1.73;;;;;;;;;;5092624;28;20150;-72
2022/06/15 09:31:59;;;;;;;4.85;2.28;;;;;;;;;;5092911;28;20052;-72
2022/06/15 09:34:34;;;;;;;3.75;2.40;;;;;;;;;;5092622;28;20087;-72
2022/06/15 09:37:00;;;;;;;5.70;2.67;;;;;;;;;;5092553;28;20515;-72
2022/06/15 09:39:27;;;;;;;;;;;;;;;;;;5092909;28;20079;-72
2022/06/15 09:42:06;;;;;;;4.90;2.42;;;;;;;;;;5092450;28;19975;-72
2022/06/15 09:44:51;;;;;;;5.40;2.67;;;;;;;;;;5092335;28;20287;-72
2022/06/15 09:47:27;;;;;;;6.25;1.88;;;;;;;;;;5092857;28;20400;-72
2022/06/15 09:50:12;;;;;;;5.00;1.95;;;;;;;;;;5092518;28;20056;-72
2022/06/15 09:52:49;;;;;;;4.00;1.80;;;;;;;;;;5092321;28;20548;-72
2022/06/15 09:55:22;;;;;;;3.65;1.65;;;;;;;;;;5092232;28;20655;-72
2022/06/15 09:57:50;;;;;;;2.58;1.65;;;;;;;;;;5092486;28;20131;-72
2022/06/15 10:00:17;;;;;;;2.90;1.77;;;;;;;;;;5092075;28;20075;-72
2022/06/15 10:02:45;;;;;;;3.83;1.50;;;;;;;;;;5090864;28;20052;-72
2022/06/15 10:05:33;;;;;;;4.60;1.50;;;;;;;;;;5091934;28;20055;-72
2022/06/15 10:08:03;;;;;;;2.42;1.73;;;;;;;;;;5092398;28;20044;-72
2022/06/15 10:10:34;;;;;;;4.50;1.55;;;;;;;;;;5092063;28;20083;-72
2022/06/15 10:13:05;;;;;;;2.50;0.93;;;;;;;;;;5092279;28;20093;-72
2022/06/15 10:15:47;;;;;;;2.08;1.20;;;;;;;;;;5092170;28;20075;-72
2022/06/15 10:18:14;;;;;;;2.72;1.40;;;;;;;;;;5091903;28;20523;-72
2022/06/15 10:20:41;;;;;;;3.65;1.17;;;;;;;;;;5091945;28;20495;-72
2022/06/15 10:23:22;;;;;;;2.85;1.13;;;;;;;;;;5091868;28;20476;-72
2022/06/15 10:25:53;;;;;;;2.90;1.05;;;;;;;;;;5092302;28;20110;-72
2022/06/15 10:28:25;;;;;;;3.13;1.80;;;;;;;;;;5091804;28;20521;-72
2022/06/15 10:30:56;;;;;;;2.33;1.40;;;;;;;;;;5091746;28;20120;-72
2022/06/15 10:33:23;;;;;;;1.88;1.42;;;;;;;;;;5091773;28;20136;-72
2022/06/15 10:35:56;;;;;;;2.65;1.38;;;;;;;;;;5091598;28;20083;-72
2022/06/15 10:38:23;;;;;;;3.13;1.35;;;;;;;;;;5091617;28;20484;-72
2022/06/15 10:40:54;;;;;;;2.90;1.65;;;;;;;;;;5091856;28;20156;-72
2022/06/15 10:43:25;;;;;;;2.47;1.60;;;;;;;;;;5091791;28;20075;-72
2022/06/15 10:45:59;;;;;;;2.60;1.35;;;;;;;;;;5091782;28;20079;-72
2022/06/15 10:48:38;;;;;;;1.98;1.20;;;;;;;;;;5091862;28;20397;-72
2022/06/15 10:51:06;;;;;;;2.72;1.48;;;;;;;;;;5091483;28;20091;-72
2022/06/15 10:53:38;;;;;;;6.20;2.05;;;;;;;;;;5091709;28;20044;-72
2022/06/15 11:04:31;;;;;;;3.53;1.75;;;;;;;;;;5091596;28;20514;-72
2022/06/15 11:07:00;;;;;;;2.75;1.20;;;;;;;;;;5091639;28;20076;-72
2022/06/15 11:09:38;;;;;;;2.72;1.30;;;;;;;;;;5091358;28;20556;-72
2022/06/15 11:12:07;;;;;;;2.90;1.05;;;;;;;;;;5091506;28;20052;-72
2022/06/15 11:14:43;;;;;;;2.42;1.13;;;;;;;;;;5091721;28;20091;-71
2022/06/15 11:20:03;;;;;;;3.30;1.60;;;;;;;;;;5095237;28;20067;-72
2022/06/15 11:22:30;;;;;;;2.55;1.42;;;;;;;;;;5095488;28;20040;-72
2022/06/15 11:25:04;;;;;;;3.10;1.23;;;;;;;;;;5095162;28;20075;-71
2022/06/15 11:27:36;;;;;;;3.50;2.15;;;;;;;;;;5095410;28;20079;-72
2022/06/15 11:30:06;;;;;;;1.55;1.23;;;;;;;;;;5095024;28;20491;-72
2022/06/15 11:32:44;;;;;;;4.47;1.50;;;;;;;;;;5095278;28;20093;-72
2022/06/15 11:35:13;;;;;;;2.60;1.23;;;;;;;;;;5095056;28;20458;-72
2022/06/15 11:37:44;;;;;;;3.67;1.30;;;;;;;;;;5095076;28;20135;-72
2022/06/15 11:40:30;;;;;;;4.15;1.50;;;;;;;;;;5094847;28;20070;-72
2022/06/15 11:42:56;;;;;;;2.42;1.20;;;;;;;;;;5094742;28;20048;-72
2022/06/15 11:45:28;;;;;;;2.90;1.20;;;;;;;;;;5095074;28;20047;-72
2022/06/15 11:48:13;;;;;;;3.20;1.00;;;;;;;;;;5095045;28;20116;-72
2022/06/15 11:50:51;;;;;;;4.80;1.20;;;;;;;;;;5094895;28;20059;-71
2022/06/15 11:53:25;;;;;;;1.45;0.80;;;;;;;;;;5094579;28;20043;-72
2022/06/15 11:56:01;;;;;;;2.35;1.10;;;;;;;;;;5094513;28;20048;-72
2022/06/15 11:58:50;;;;;;;2.50;1.13;;;;;;;;;;5094446;28;20052;-72
2022/06/15 12:01:17;;;;;;;2.22;0.90;;;;;;;;;;5094492;28;20483;-72
2022/06/15 12:03:58;;;;;;;3.80;1.10;;;;;;;;;;5094265;28;20040;-72
2022/06/15 12:06:26;;;;;;;2.47;0.95;;;;;;;;;;5094557;28;20048;-72
2022/06/15 12:08:53;;;;;;;2.03;0.90;;;;;;;;;;5094242;28;20453;-72
2022/06/15 12:14:31;;;;;;;1.95;0.90;;;;;;;;;;5094572;28;20040;-71
2022/06/15 12:17:00;;;;;;;2.97;0.82;;;;;;;;;;5094456;28;20071;-72
2022/06/15 12:19:38;;;;;;;3.42;1.38;;;;;;;;;;5094354;28;20138;-72
2022/06/15 12:22:13;;;;;;;1.13;0.85;;;;;;;;;;5094000;28;20168;-72
2022/06/15 12:24:41;;;;;;;2.73;0.83;;;;;;;;;;5094350;28;20063;-72
2022/06/15 12:27:12;;;;;;;2.65;0.75;;;;;;;;;;5093017;28;20079;-70
2022/06/15 12:29:51;;;;;;;1.25;0.70;;;;;;;;;;5093590;28;20139;-70
2022/06/15 12:35:02;;;;;;;1.50;0.93;;;;;;;;;;5094101;28;20076;-72
2022/06/15 12:37:35;;;;;;;1.77;0.75;;;;;;;;;;5093508;28;20098;-72
2022/06/15 12:40:10;;;;;;;2.05;0.70;;;;;;;;;;5093926;28;20093;-72
2022/06/15 12:42:38;;;;;;;1.52;0.80;;;;;;;;;;5093831;28;20079;-72
2022/06/15 12:45:05;;;;;;;1.88;0.85;;;;;;;;;;5093484;28;20044;-73
2022/06/15 12:47:31;;;;;;;1.58;0.82;;;;;;;;;;5093488;28;20560;-71
2022/06/15 12:50:04;;;;;;;0.80;0.52;;;;;;;;;;5093742;28;20051;-71
2022/06/15 12:52:32;;;;;;;0.93;0.77;;;;;;;;;;5093766;28;20145;-71
2022/06/15 12:55:22;;;;;;;2.08;0.88;;;;;;;;;;5093480;28;20450;-73
2022/06/15 12:58:03;;;;;;;1.90;0.57;;;;;;;;;;5093546;28;20048;-70
2022/06/15 13:00:31;;;;;;;2.45;0.52;;;;;;;;;;5093442;28;20079;-70
2022/06/15 13:02:57;;;;;;;2.00;0.73;;;;;;;;;;5093287;28;20492;-72
2022/06/15 13:05:31;;;;;;;1.42;0.68;;;;;;;;;;5093082;28;20527;-72
2022/06/15 13:08:12;;;;;;;1.80;1.10;;;;;;;;;;5093200;28;20130;-72
2022/06/15 13:11:01;;;;;;;0.88;0.65;;;;;;;;;;5093663;28;20072;-72
2022/06/15 13:13:28;;;;;;;0.70;0.60;;;;;;;;;;5082745;28;20083;-69
2022/06/15 13:15:54;;;;;;;;;;;;;;;;;;5093377;28;20079;-69
2022/06/15 13:18:39;;;;;;;2.47;1.08;;;;;;;;;;5093101;28;19989;-69
2022/06/15 13:21:05;;;;;;;1.63;0.63;;;;;;;;;;5093244;28;20093;-70
2022/06/15 13:23:35;;;;;;;2.20;0.90;;;;;;;;;;5092878;28;20079;-70
2022/06/15 13:26:05;;;;;;;1.90;0.80;;;;;;;;;;5093117;28;20436;-70
2022/06/15 13:28:34;;;;;;;2.28;0.98;;;;;;;;;;5093110;28;20079;-70
2022/06/15 13:31:02;;;;;;;1.35;0.70;;;;;;;;;;5092656;28;20101;-70
2022/06/15 13:33:44;;;;;;;1.65;0.60;;;;;;;;;;5093000;28;20101;-70
2022/06/15 13:36:10;;;;;;;0.70;0.70;;;;;;;;;;5092398;28;20491;-70
2022/06/15 13:38:38;;;;;;;0.80;0.65;;;;;;;;;;5092924;28;20076;-70
2022/06/15 13:41:06;;;;;;;0.50;0.50;;;;;;;;;;5091971;28;20131;-70
2022/06/15 13:43:42;;;;;;;0.93;0.63;;;;;;;;;;5092775;28;20044;-70
2022/06/15 13:46:21;;;;;;;1.40;0.70;;;;;;;;;;5092644;28;20131;-70
2022/06/15 13:48:48;;;;;;;0.98;0.50;;;;;;;;;;5092673;28;20093;-70
2022/06/15 13:51:22;;;;;;;2.90;0.40;;;;;;;;;;5092370;28;20082;-70
2022/06/15 13:53:51;;;;;;;1.20;0.50;;;;;;;;;;5092283;28;20105;-70
2022/06/15 13:56:29;;;;;;;0.70;0.50;;;;;;;;;;5092244;28;20543;-70
2022/06/15 13:59:09;;;;;;;0.52;0.35;;;;;;;;;;5092258;28;20090;-70
2022/06/15 14:01:41;;;;;;;0.90;0.43;;;;;;;;;;5092320;28;20056;-71
2022/06/15 14:04:17;;;;;;;0.30;0.30;;;;;;;;;;5092183;28;20050;-71
2022/06/15 14:06:49;;;;;;;0.40;0.28;;;;;;;;;;5092374;28;20083;-70
2022/06/15 14:09:19;;;;;;;0.50;0.40;;;;;;;;;;5092102;28;20507;-70
2022/06/15 14:12:04;;;;;;;0.90;0.50;;;;;;;;;;5092028;28;20083;-71
2022/06/15 14:14:50;;;;;;;0.82;0.30;;;;;;;;;;5084316;28;20044;-70
2022/06/15 14:17:35;;;;;;;1.20;0.40;;;;;;;;;;5087572;28;20079;-70
2022/06/15 14:20:21;;;;;;;0.53;0.50;;;;;;;;;;5092225;28;20130;-71
2022/06/15 14:22:51;;;;;;;0.52;0.50;;;;;;;;;;5091978;28;20044;-71
2022/06/15 14:25:39;;;;;;;0.90;0.40;;;;;;;;;;5091996;28;20403;-70
2022/06/15 14:28:08;;;;;;;0.77;0.40;;;;;;;;;;5090593;28;20561;-70
2022/06/15 14:30:35;;;;;;;1.52;0.60;;;;;;;;;;5091747;28;20086;-70
2022/06/15 14:33:06;;;;;;;3.30;0.40;;;;;;;;;;5092342;28;20082;-70
2022/06/15 14:35:34;;;;;;;0.88;0.47;;;;;;;;;;5091721;28;20087;-70
2022/06/15 14:38:01;;;;;;;1.40;0.40;;;;;;;;;;5091963;28;20072;-71
2022/06/15 14:40:36;;;;;;;1.23;0.50;;;;;;;;;;5080552;28;20083;-71
2022/06/15 14:43:04;;;;;;;0.55;0.30;;;;;;;;;;5090539;28;20079;-71
2022/06/15 14:45:36;;;;;;;1.20;0.35;;;;;;;;;;5091934;28;20076;-71
2022/06/15 14:48:22;;;;;;;0.95;0.30;;;;;;;;;;5091518;28;20071;-71
2022/06/15 14:51:03;;;;;;;1.38;0.40;;;;;;;;;;5091773;28;20073;-71
2022/06/15 14:53:29;;;;;;;2.10;0.40;;;;;;;;;;5095752;28;20083;-71
2022/06/15 14:56:00;;;;;;;0.55;0.22;;;;;;;;;;5095917;28;20106;-71
2022/06/15 14:58:26;;;;;;;0.50;0.30;;;;;;;;;;5094699;28;20044;-71
2022/06/15 15:01:11;;;;;;;0.70;0.43;;;;;;;;;;5095893;28;20072;-70
2022/06/15 15:03:39;;;;;;;2.65;1.27;;;;;;;;;;5095526;28;20087;-70
2022/06/15 15:06:08;;;;;;;0.88;0.30;;;;;;;;;;5094303;28;20518;-70
2022/06/15 15:08:34;;;;;;;0.75;0.47;;;;;;;;;;5095802;28;20109;-71
2022/06/15 15:11:07;;;;;;;0.45;0.30;;;;;;;;;;5095791;28;20456;-71
2022/06/15 15:13:38;;;;;;;0.20;0.20;;;;;;;;;;5095720;28;20086;-71
2022/06/15 15:16:16;;;;;;;0.57;0.30;;;;;;;;;;5095462;28;20101;-70
2022/06/15 15:18:45;;;;;;;0.57;0.38;;;;;;;;;;5095389;28;20105;-71
2022/06/15 15:21:23;;;;;;;0.95;0.55;;;;;;;;;;5095526;28;20121;-71
2022/06/15 15:23:49;;;;;;;0.88;0.25;;;;;;;;;;5094954;28;20109;-70
2022/06/15 15:26:27;;;;;;;1.25;0.47;;;;;;;;;;5081829;28;20186;-71
2022/06/15 15:34:30;;;;;;;3.60;0.50;;;;;;;;;;5094899;28;20097;-71